Time;durP1;ratioP1;P1;durP2;ratioP2;P2;SDS_P1;SDS_P2;PMS_P1;PMS_P2;Temp;Humidity;BMP_temperature;BMP_pressure;BME280_temperature;BME280_humidity;BME280_pressure;Samples;Min_cycle;Max_cycle;Signal;HPM_P1;HPM_P2
2022/06/27 00:01:14;;;;;;;2.25;2.00;;;23.60;66.50;;;;;;936473;149;27281;-69
2022/06/27 00:03:40;;;;;;;2.05;1.95;;;23.50;66.80;;;;;;923319;151;27396;-69
2022/06/27 00:06:07;;;;;;;1.95;1.82;;;23.40;67.20;;;;;;941069;148;27354;-69
2022/06/27 00:08:34;;;;;;;5.10;1.95;;;23.30;67.50;;;;;;937372;151;27341;-72
2022/06/27 00:11:00;;;;;;;2.00;1.90;;;23.20;68.00;;;;;;936786;151;27406;-69
2022/06/27 00:13:27;;;;;;;2.00;1.90;;;23.10;68.30;;;;;;939319;151;27476;-69
2022/06/27 00:15:53;;;;;;;2.52;2.00;;;23.00;68.80;;;;;;921629;151;27347;-70
2022/06/27 00:18:20;;;;;;;2.02;1.92;;;22.90;69.20;;;;;;939730;148;27306;-69
2022/06/27 00:20:46;;;;;;;1.75;1.65;;;22.80;69.70;;;;;;935782;151;27844;-72
2022/06/27 00:23:13;;;;;;;1.95;1.85;;;22.70;70.10;;;;;;921978;151;27774;-69
2022/06/27 00:25:40;;;;;;;2.08;1.87;;;22.60;70.60;;;;;;922855;151;27386;-70
2022/06/27 00:28:06;;;;;;;2.00;1.90;;;22.60;70.90;;;;;;943136;148;27344;-70
2022/06/27 00:30:33;;;;;;;2.27;2.08;;;22.50;71.30;;;;;;938927;148;27437;-69
2022/06/27 00:33:00;;;;;;;2.37;2.17;;;22.50;71.70;;;;;;938575;148;27887;-70
2022/06/27 00:35:26;;;;;;;2.35;2.02;;;22.40;72.10;;;;;;936300;148;27325;-69
2022/06/27 00:37:53;;;;;;;2.45;2.25;;;22.40;72.60;;;;;;924952;151;27420;-68
2022/06/27 00:40:19;;;;;;;2.00;1.90;;;22.30;72.80;;;;;;922060;151;27311;-69
2022/06/27 00:42:46;;;;;;;2.55;2.35;;;22.30;73.30;;;;;;939780;148;27338;-70
2022/06/27 00:45:13;;;;;;;2.70;2.50;;;22.30;73.80;;;;;;937703;148;27397;-69
2022/06/27 00:47:39;;;;;;;2.33;2.20;;;22.20;74.30;;;;;;936076;151;27438;-69
2022/06/27 00:50:06;;;;;;;2.08;1.95;;;22.20;74.60;;;;;;918062;152;27323;-69
2022/06/27 00:52:33;;;;;;;2.72;2.42;;;22.20;74.80;;;;;;957186;145;27889;-71
2022/06/27 00:54:59;;;;;;;2.52;2.30;;;22.20;75.30;;;;;;957062;145;27418;-69
2022/06/27 00:57:26;;;;;;;2.05;1.95;;;22.10;75.60;;;;;;936625;149;27366;-70
2022/06/27 00:59:52;;;;;;;3.05;1.92;;;22.10;75.90;;;;;;918682;152;27346;-69
2022/06/27 01:02:19;;;;;;;2.12;2.02;;;22.10;76.20;;;;;;956679;145;27336;-71
2022/06/27 01:04:45;;;;;;;2.40;2.25;;;22.10;76.70;;;;;;935478;149;27469;-71
2022/06/27 01:07:12;;;;;;;3.50;2.08;;;22.10;77.30;;;;;;938311;149;27824;-69
2022/06/27 01:09:39;;;;;;;2.60;2.42;;;22.00;77.30;;;;;;935139;149;27484;-68
2022/06/27 01:12:05;;;;;;;4.33;2.60;;;22.00;77.60;;;;;;957832;145;27403;-70
2022/06/27 01:14:32;;;;;;;3.30;2.15;;;22.00;77.80;;;;;;957562;145;27287;-69
2022/06/27 01:16:58;;;;;;;2.22;2.05;;;21.90;78.10;;;;;;956789;145;27283;-69
2022/06/27 01:19:25;;;;;;;8.05;2.77;;;21.90;78.40;;;;;;936268;149;27368;-72
2022/06/27 01:21:52;;;;;;;1.95;1.85;;;21.80;79.50;;;;;;957922;146;27372;-72
2022/06/27 01:24:18;;;;;;;3.05;2.30;;;21.70;80.90;;;;;;957021;145;27287;-71
2022/06/27 01:26:45;;;;;;;2.30;2.20;;;21.60;82.60;;;;;;958192;145;27328;-72
2022/06/27 01:29:11;;;;;;;2.40;2.20;;;21.50;84.50;;;;;;958015;146;27971;-71
2022/06/27 01:31:38;;;;;;;2.08;1.95;;;21.40;86.30;;;;;;935624;149;27334;-72
2022/06/27 01:34:05;;;;;;;2.00;1.90;;;21.30;88.20;;;;;;957645;145;27291;-73
2022/06/27 01:36:43;;;;;;;2.50;2.30;;;21.30;90.00;;;;;;938562;149;27426;-71
2022/06/27 01:39:10;;;;;;;2.80;2.42;;;21.20;90.90;;;;;;935089;149;27414;-75
2022/06/27 01:41:39;;;;;;;2.33;2.20;;;21.20;91.40;;;;;;931029;149;27688;-76
2022/06/27 01:44:05;;;;;;;2.58;2.40;;;21.10;92.20;;;;;;957047;145;27266;-74
2022/06/27 01:46:38;;;;;;;2.70;2.50;;;21.10;93.10;;;;;;957509;145;27344;-74
2022/06/27 01:49:05;;;;;;;2.50;2.30;;;21.10;93.90;;;;;;904014;152;27407;-74
2022/06/27 01:51:31;;;;;;;2.52;2.42;;;21.00;94.50;;;;;;914758;152;27466;-75
2022/06/27 01:53:58;;;;;;;2.65;2.45;;;21.00;95.20;;;;;;914695;152;27392;-74
2022/06/27 01:56:24;;;;;;;2.83;2.55;;;21.00;95.70;;;;;;916844;152;27482;-74
2022/06/27 01:58:52;;;;;;;3.42;2.62;;;21.00;96.20;;;;;;914390;152;27322;-73
2022/06/27 02:01:18;;;;;;;2.85;2.65;;;21.00;96.70;;;;;;915789;152;27340;-75
2022/06/27 02:03:44;;;;;;;4.10;2.80;;;21.00;97.00;;;;;;915322;152;27406;-73
2022/06/27 02:06:11;;;;;;;3.67;2.98;;;21.00;97.20;;;;;;914783;152;27472;-73
2022/06/27 02:08:40;;;;;;;2.58;2.40;;;21.00;97.40;;;;;;919320;150;27377;-73
2022/06/27 02:11:04;;;;;;;3.20;2.90;;;21.00;97.70;;;;;;915140;152;27482;-75
2022/06/27 02:13:30;;;;;;;3.58;2.52;;;21.00;97.80;;;;;;915899;152;27361;-74
2022/06/27 02:16:06;;;;;;;2.72;2.47;;;21.00;97.90;;;;;;913049;153;27403;-73
2022/06/27 02:18:33;;;;;;;2.60;2.40;;;21.00;98.20;;;;;;916221;152;27425;-72
2022/06/27 02:20:59;;;;;;;2.40;2.20;;;20.90;98.70;;;;;;913109;153;27392;-72
2022/06/27 02:23:26;;;;;;;2.60;2.40;;;20.90;98.60;;;;;;914672;152;27312;-74
2022/06/27 02:25:52;;;;;;;2.98;2.77;;;20.80;99.10;;;;;;913460;152;27394;-72
2022/06/27 02:28:19;;;;;;;2.92;2.72;;;20.80;99.10;;;;;;914958;152;27344;-75
2022/06/27 02:30:46;;;;;;;2.52;2.42;;;20.80;99.40;;;;;;914455;152;27473;-72
2022/06/27 02:33:12;;;;;;;2.90;2.70;;;20.80;99.80;;;;;;915513;152;27329;-72
2022/06/27 02:35:42;;;;;;;3.35;2.60;;;20.80;99.90;;;;;;916063;152;27451;-74
2022/06/27 02:38:08;;;;;;;2.80;2.60;;;20.70;99.90;;;;;;915775;152;27408;-72
2022/06/27 02:40:35;;;;;;;3.15;2.95;;;20.70;99.90;;;;;;917460;152;27836;-76
2022/06/27 02:43:01;;;;;;;2.85;2.65;;;20.70;99.90;;;;;;914676;152;27486;-76
2022/06/27 02:45:31;;;;;;;4.03;2.62;;;20.70;99.90;;;;;;915919;152;27386;-76
2022/06/27 02:48:00;;;;;;;2.72;2.52;;;20.70;99.90;;;;;;916407;152;27394;-76
2022/06/27 02:50:27;;;;;;;2.77;2.55;;;20.70;99.90;;;;;;916915;152;28645;-76
2022/06/27 02:52:53;;;;;;;2.67;2.58;;;20.60;99.90;;;;;;916198;152;27716;-76
2022/06/27 02:55:20;;;;;;;2.85;2.70;;;20.60;99.90;;;;;;914412;152;27366;-75
2022/06/27 02:57:55;;;;;;;2.92;2.80;;;20.60;99.90;;;;;;913976;152;27336;-75
2022/06/27 03:00:22;;;;;;;3.10;2.90;;;20.60;99.90;;;;;;914080;152;27404;-75
2022/06/27 03:02:48;;;;;;;2.85;2.65;;;20.60;99.90;;;;;;912411;152;27349;-74
2022/06/27 03:05:15;;;;;;;4.20;3.90;;;20.60;99.90;;;;;;915295;152;27471;-74
2022/06/27 03:07:41;;;;;;;3.98;3.60;;;20.50;99.90;;;;;;914230;152;27413;-75
2022/06/27 03:10:08;;;;;;;3.80;3.60;;;20.50;99.90;;;;;;914648;152;27405;-75
2022/06/27 03:12:35;;;;;;;3.60;3.30;;;20.50;99.90;;;;;;913370;152;27420;-75
2022/06/27 03:15:01;;;;;;;3.12;2.92;;;20.50;99.90;;;;;;915383;152;27305;-75
2022/06/27 03:17:28;;;;;;;3.25;3.05;;;20.40;99.90;;;;;;914696;152;27356;-73
2022/06/27 03:19:56;;;;;;;4.20;3.27;;;20.40;99.90;;;;;;914321;152;27383;-73
2022/06/27 03:22:21;;;;;;;2.92;2.77;;;20.40;99.90;;;;;;913472;152;27397;-74
2022/06/27 03:24:48;;;;;;;3.22;2.95;;;20.40;99.90;;;;;;912693;152;27365;-75
2022/06/27 03:27:14;;;;;;;3.47;3.17;;;20.30;99.90;;;;;;915517;152;27356;-75
2022/06/27 03:29:41;;;;;;;3.00;2.80;;;20.40;99.90;;;;;;915834;152;27429;-74
2022/06/27 03:32:07;;;;;;;3.20;3.00;;;20.30;99.90;;;;;;916557;152;27314;-73
2022/06/27 03:34:34;;;;;;;3.17;2.98;;;20.30;99.90;;;;;;915361;152;27490;-75
2022/06/27 03:37:01;;;;;;;3.42;3.22;;;20.30;99.90;;;;;;914178;152;27398;-75
2022/06/27 03:39:27;;;;;;;3.60;3.30;;;20.30;99.90;;;;;;904136;153;27345;-75
2022/06/27 03:41:54;;;;;;;3.37;3.17;;;20.30;99.90;;;;;;915350;152;27447;-73
2022/06/27 03:44:21;;;;;;;3.65;3.45;;;20.20;99.90;;;;;;916002;152;27472;-74
2022/06/27 03:46:47;;;;;;;3.30;3.10;;;20.30;99.90;;;;;;916028;152;27388;-75
2022/06/27 03:51:46;;;;;;;3.50;3.30;;;20.20;99.90;;;;;;902630;152;27499;-75
2022/06/27 03:54:12;;;;;;;3.65;3.45;;;20.20;99.90;;;;;;915017;152;27345;-73
2022/06/27 03:56:39;;;;;;;4.45;4.15;;;20.20;99.90;;;;;;915174;151;27503;-75
2022/06/27 03:59:06;;;;;;;3.42;3.20;;;20.20;99.90;;;;;;918495;152;27405;-74
2022/06/27 04:01:32;;;;;;;3.65;3.45;;;20.20;99.90;;;;;;915870;152;27354;-74
2022/06/27 04:03:59;;;;;;;3.40;3.20;;;20.30;99.90;;;;;;916684;152;27441;-73
2022/06/27 04:06:25;;;;;;;3.47;3.27;;;20.30;99.90;;;;;;915644;152;27416;-75
2022/06/27 04:08:52;;;;;;;3.50;3.30;;;20.30;99.90;;;;;;914246;152;27380;-73
2022/06/27 04:11:18;;;;;;;3.42;3.22;;;20.30;99.90;;;;;;914622;152;27409;-74
2022/06/27 04:13:45;;;;;;;3.52;3.33;;;20.30;99.90;;;;;;914546;152;27424;-74
2022/06/27 04:16:12;;;;;;;3.47;3.17;;;20.30;99.90;;;;;;916805;152;27379;-74
2022/06/27 04:18:38;;;;;;;3.55;3.35;;;20.30;99.90;;;;;;915371;152;27413;-75
2022/06/27 04:21:05;;;;;;;3.52;3.33;;;20.40;99.90;;;;;;915398;153;27354;-75
2022/06/27 04:23:32;;;;;;;3.75;3.50;;;20.40;99.90;;;;;;914931;153;27360;-74
2022/06/27 04:25:58;;;;;;;3.33;3.12;;;20.40;99.90;;;;;;916276;152;27389;-74
2022/06/27 04:28:25;;;;;;;3.42;3.22;;;20.40;99.90;;;;;;915765;152;27378;-73
2022/06/27 04:30:52;;;;;;;3.75;3.45;;;20.40;99.90;;;;;;915501;152;27450;-75
2022/06/27 04:33:19;;;;;;;3.83;3.52;;;20.50;99.90;;;;;;913389;152;28337;-74
2022/06/27 04:35:46;;;;;;;3.83;3.52;;;20.50;99.90;;;;;;914595;152;27415;-74
2022/06/27 04:38:11;;;;;;;3.60;3.40;;;20.50;99.90;;;;;;914027;152;27533;-75
2022/06/27 04:40:38;;;;;;;4.12;3.72;;;20.60;99.90;;;;;;914028;152;27847;-74
2022/06/27 04:43:04;;;;;;;3.52;3.27;;;20.60;99.90;;;;;;914738;152;27357;-75
2022/06/27 04:45:33;;;;;;;3.37;3.17;;;20.70;99.90;;;;;;913987;152;27334;-75
2022/06/27 04:47:57;;;;;;;4.08;3.83;;;20.70;99.90;;;;;;916512;152;27385;-74
2022/06/27 04:50:25;;;;;;;4.47;3.80;;;20.80;99.90;;;;;;916679;152;27444;-72
2022/06/27 04:52:51;;;;;;;3.87;3.55;;;20.80;99.90;;;;;;915332;152;27932;-75
2022/06/27 04:55:17;;;;;;;3.65;3.35;;;20.90;99.90;;;;;;914267;152;27500;-75
2022/06/27 04:57:44;;;;;;;3.65;3.35;;;20.90;99.90;;;;;;915576;152;27397;-74
2022/06/27 05:00:11;;;;;;;3.15;2.95;;;20.90;99.90;;;;;;915083;152;27397;-74
2022/06/27 05:02:37;;;;;;;3.45;3.20;;;21.00;99.90;;;;;;915494;152;27428;-72
2022/06/27 05:05:03;;;;;;;3.55;3.17;;;21.00;99.90;;;;;;916575;152;27478;-74
2022/06/27 05:07:30;;;;;;;3.47;2.90;;;21.10;99.90;;;;;;916160;152;27473;-74
2022/06/27 05:09:57;;;;;;;2.92;2.72;;;21.10;99.90;;;;;;903730;153;27341;-74
2022/06/27 05:12:24;;;;;;;3.75;3.45;;;21.10;99.90;;;;;;916034;152;27435;-73
2022/06/27 05:14:50;;;;;;;4.20;3.70;;;21.10;99.90;;;;;;914113;152;27341;-74
2022/06/27 05:17:16;;;;;;;3.50;3.30;;;21.20;99.90;;;;;;914600;152;27467;-73
2022/06/27 05:19:44;;;;;;;5.25;3.60;;;21.20;99.90;;;;;;916688;152;27395;-74
2022/06/27 05:22:10;;;;;;;4.17;3.70;;;21.20;99.90;;;;;;940936;146;27319;-74
2022/06/27 05:24:36;;;;;;;4.30;3.90;;;21.20;99.90;;;;;;939362;146;27396;-73
2022/06/27 05:27:03;;;;;;;4.67;4.00;;;21.30;99.90;;;;;;940363;146;27421;-73
2022/06/27 05:29:29;;;;;;;5.08;4.65;;;21.30;99.90;;;;;;940795;146;27412;-74
2022/06/27 05:31:56;;;;;;;5.55;4.80;;;21.40;99.90;;;;;;939714;146;27320;-74
2022/06/27 05:34:22;;;;;;;5.58;4.97;;;21.40;99.90;;;;;;918793;150;27398;-74
2022/06/27 05:36:49;;;;;;;5.85;5.25;;;21.50;99.90;;;;;;914108;152;27297;-74
2022/06/27 05:39:16;;;;;;;5.25;4.87;;;21.50;99.90;;;;;;915201;152;27358;-73
2022/06/27 05:41:43;;;;;;;5.75;5.30;;;21.60;99.90;;;;;;914727;152;27466;-74
2022/06/27 05:44:09;;;;;;;6.33;5.72;;;21.60;99.90;;;;;;914506;152;27405;-73
2022/06/27 05:46:37;;;;;;;6.42;5.87;;;21.70;99.90;;;;;;914973;152;27508;-74
2022/06/27 05:49:03;;;;;;;5.87;5.42;;;21.70;99.90;;;;;;915650;152;27455;-74
2022/06/27 05:51:29;;;;;;;6.70;6.20;;;21.70;99.90;;;;;;910715;152;27414;-74
2022/06/27 05:53:58;;;;;;;7.22;6.62;;;21.80;99.90;;;;;;940687;148;27285;-72
2022/06/27 05:56:22;;;;;;;6.20;5.72;;;21.80;99.90;;;;;;903935;156;27379;-74
2022/06/27 06:01:11;;;;;;;7.08;6.47;;;21.80;99.90;;;;;;971716;144;37205;-72
2022/06/27 06:03:38;;;;;;;7.67;7.08;;;21.90;99.90;;;;;;959314;149;27359;-73
2022/06/27 06:06:05;;;;;;;7.22;6.62;;;21.90;99.90;;;;;;958984;149;27359;-72
2022/06/27 06:08:32;;;;;;;6.62;6.12;;;22.00;99.90;;;;;;959444;149;27395;-73
2022/06/27 06:10:58;;;;;;;6.85;6.35;;;22.00;99.90;;;;;;959870;148;27780;-72
2022/06/27 06:13:25;;;;;;;7.17;6.58;;;22.00;99.90;;;;;;959024;148;27310;-72
2022/06/27 06:15:51;;;;;;;6.95;6.35;;;22.10;99.90;;;;;;960057;148;27412;-72
2022/06/27 06:18:18;;;;;;;7.08;6.47;;;22.10;99.90;;;;;;959387;149;27411;-73
2022/06/27 06:20:44;;;;;;;6.62;6.12;;;22.20;99.90;;;;;;959231;149;27252;-73
2022/06/27 06:23:11;;;;;;;6.62;6.15;;;22.30;99.90;;;;;;959726;148;27327;-73
2022/06/27 06:25:37;;;;;;;6.60;6.00;;;22.40;99.90;;;;;;958351;147;27374;-71
2022/06/27 06:28:04;;;;;;;5.67;5.28;;;22.50;99.90;;;;;;960403;149;27431;-71
2022/06/27 06:30:31;;;;;;;7.22;6.62;;;22.60;99.90;;;;;;960484;148;27290;-73
2022/06/27 06:33:02;;;;;;;6.15;5.67;;;22.80;99.90;;;;;;959397;149;27287;-72
2022/06/27 06:35:24;;;;;;;6.20;5.78;;;22.90;99.90;;;;;;957836;148;27399;-72
2022/06/27 06:37:51;;;;;;;7.05;6.17;;;23.10;99.90;;;;;;959179;149;27347;-73
2022/06/27 06:40:17;;;;;;;6.35;5.80;;;23.20;99.90;;;;;;959111;148;27386;-74
2022/06/27 06:42:44;;;;;;;6.10;5.55;;;23.30;99.90;;;;;;959452;149;27304;-72
2022/06/27 06:45:10;;;;;;;5.58;5.17;;;23.50;99.90;;;;;;959454;147;27769;-72
2022/06/27 06:47:46;;;;;;;5.60;5.12;;;23.60;99.90;;;;;;960115;148;27361;-72
2022/06/27 06:50:16;;;;;;;5.08;4.67;;;23.80;99.90;;;;;;959292;149;27350;-73
2022/06/27 06:52:42;;;;;;;5.60;5.05;;;24.00;99.90;;;;;;959748;148;27409;-73
2022/06/27 06:55:06;;;;;;;5.72;5.25;;;24.10;99.90;;;;;;958461;149;27310;-73
2022/06/27 06:57:32;;;;;;;5.05;4.65;;;24.20;99.90;;;;;;960173;149;27307;-72
2022/06/27 06:59:58;;;;;;;4.87;4.58;;;24.20;99.90;;;;;;956548;149;27365;-72
2022/06/27 07:02:25;;;;;;;5.53;4.78;;;24.30;99.90;;;;;;942928;149;27365;-74
2022/06/27 07:04:52;;;;;;;5.15;4.75;;;24.30;99.90;;;;;;943266;149;27897;-73
2022/06/27 07:07:19;;;;;;;5.58;5.10;;;24.30;99.90;;;;;;942093;149;27342;-73
2022/06/27 07:09:45;;;;;;;5.90;5.28;;;24.30;99.90;;;;;;942785;149;27417;-72
2022/06/27 07:12:11;;;;;;;5.65;4.95;;;24.30;99.90;;;;;;943062;149;27378;-73
2022/06/27 07:14:38;;;;;;;5.53;5.12;;;24.30;99.90;;;;;;942846;149;27348;-72
2022/06/27 07:17:05;;;;;;;5.10;4.72;;;24.30;99.90;;;;;;942288;150;27403;-73
2022/06/27 07:19:32;;;;;;;4.97;4.67;;;24.30;99.90;;;;;;942284;149;27418;-72
2022/06/27 07:21:58;;;;;;;5.30;4.90;;;24.30;99.90;;;;;;942150;149;27358;-73
2022/06/27 07:24:24;;;;;;;4.05;3.77;;;24.30;99.90;;;;;;942782;149;27455;-72
2022/06/27 07:26:52;;;;;;;4.30;4.00;;;24.30;99.90;;;;;;942117;149;27808;-72
2022/06/27 07:29:17;;;;;;;3.80;3.50;;;24.30;99.90;;;;;;942434;149;27310;-74
2022/06/27 07:31:44;;;;;;;4.30;4.00;;;24.30;99.90;;;;;;942623;149;27430;-72
2022/06/27 07:34:11;;;;;;;4.25;3.95;;;24.30;99.90;;;;;;943218;149;27322;-72
2022/06/27 07:36:38;;;;;;;4.60;4.30;;;24.30;99.90;;;;;;942216;149;27314;-71
2022/06/27 07:39:04;;;;;;;4.20;3.90;;;24.40;99.90;;;;;;942399;149;27346;-72
2022/06/27 07:41:32;;;;;;;4.33;3.92;;;24.40;99.90;;;;;;942302;149;27442;-72
2022/06/27 07:43:57;;;;;;;3.87;3.67;;;24.40;99.90;;;;;;942689;149;27384;-72
2022/06/27 07:46:24;;;;;;;4.33;4.03;;;24.50;99.90;;;;;;942892;149;27439;-73
2022/06/27 07:48:50;;;;;;;4.35;4.05;;;24.50;99.90;;;;;;942628;149;27357;-73
2022/06/27 07:51:19;;;;;;;4.28;4.05;;;24.40;99.90;;;;;;942615;149;27368;-73
2022/06/27 07:53:46;;;;;;;3.95;3.65;;;24.50;99.90;;;;;;942313;149;27306;-72
2022/06/27 07:56:11;;;;;;;3.98;3.67;;;24.50;99.90;;;;;;941910;149;27349;-72
2022/06/27 07:58:38;;;;;;;3.75;3.45;;;24.50;99.90;;;;;;942926;149;27326;-71
2022/06/27 08:01:03;;;;;;;5.53;3.77;;;24.50;99.90;;;;;;946863;149;27478;-73
2022/06/27 08:03:47;;;;;;;3.83;2.98;;;24.50;99.90;;;;;;952710;150;28793;-74
2022/06/27 08:06:15;;;;;;;3.30;3.10;;;24.50;99.90;;;;;;955199;150;27335;-72
2022/06/27 08:08:41;;;;;;;3.50;3.30;;;24.50;99.90;;;;;;954484;150;27322;-73
2022/06/27 08:11:07;;;;;;;3.40;3.10;;;24.60;99.90;;;;;;954031;150;27322;-72
2022/06/27 08:13:35;;;;;;;2.87;2.77;;;24.70;99.90;;;;;;953589;149;27332;-72
2022/06/27 08:16:00;;;;;;;3.27;3.08;;;24.70;99.90;;;;;;953319;150;27282;-72
2022/06/27 08:18:30;;;;;;;3.25;3.05;;;24.70;99.90;;;;;;953895;149;27466;-72
2022/06/27 08:20:53;;;;;;;2.60;2.42;;;24.70;99.90;;;;;;952631;150;27337;-72
2022/06/27 08:23:20;;;;;;;3.08;2.60;;;24.70;99.90;;;;;;953306;150;27349;-72
2022/06/27 08:25:47;;;;;;;2.95;2.70;;;24.70;99.90;;;;;;953678;149;27394;-73
2022/06/27 08:28:14;;;;;;;2.62;2.50;;;24.80;99.90;;;;;;954028;150;27378;-72
2022/06/27 08:30:41;;;;;;;3.98;2.30;;;24.80;99.90;;;;;;953986;150;27385;-72
2022/06/27 08:33:06;;;;;;;2.58;2.45;;;24.90;99.90;;;;;;953773;150;27329;-73
2022/06/27 08:35:33;;;;;;;2.30;2.15;;;24.90;99.90;;;;;;953782;149;27456;-73
2022/06/27 08:38:00;;;;;;;2.65;2.08;;;25.00;99.90;;;;;;953667;149;27313;-73
2022/06/27 08:40:26;;;;;;;2.15;1.95;;;25.00;99.90;;;;;;953749;150;27301;-72
2022/06/27 08:42:53;;;;;;;2.75;2.42;;;25.10;99.90;;;;;;953806;150;27329;-72
2022/06/27 08:45:20;;;;;;;2.72;2.52;;;25.10;99.90;;;;;;953926;150;27414;-72
2022/06/27 08:47:46;;;;;;;2.87;2.10;;;25.30;99.90;;;;;;953635;150;27437;-72
2022/06/27 08:50:14;;;;;;;2.40;2.10;;;25.50;99.90;;;;;;953381;150;27329;-72
2022/06/27 08:52:39;;;;;;;1.87;1.77;;;25.80;99.90;;;;;;952768;148;27409;-72
2022/06/27 08:55:11;;;;;;;1.65;1.55;;;26.40;99.90;;;;;;952775;150;27333;-72
2022/06/27 08:57:39;;;;;;;1.67;1.57;;;27.10;99.90;;;;;;954031;150;27973;-73
2022/06/27 09:00:06;;;;;;;2.15;1.65;;;28.10;99.90;;;;;;953288;149;27393;-73
2022/06/27 09:02:31;;;;;;;1.70;1.60;;;29.10;99.90;;;;;;958452;149;27776;-73
2022/06/27 09:05:02;;;;;;;2.92;1.55;;;30.00;99.90;;;;;;960331;148;27853;-73
2022/06/27 09:07:46;;;;;;;1.72;1.62;;;30.80;99.90;;;;;;959662;149;27698;-73
2022/06/27 09:10:27;;;;;;;1.47;1.37;;;31.30;95.80;;;;;;960101;149;27371;-73
2022/06/27 09:12:54;;;;;;;1.40;1.40;;;31.70;91.70;;;;;;951046;149;27316;-73
2022/06/27 09:15:20;;;;;;;1.40;1.40;;;31.80;87.60;;;;;;959720;149;27261;-73
2022/06/27 09:17:47;;;;;;;1.72;1.60;;;31.70;84.50;;;;;;960442;149;27246;-73
2022/06/27 09:20:13;;;;;;;1.42;1.32;;;31.70;82.20;;;;;;958425;149;27388;-72
2022/06/27 09:22:40;;;;;;;2.67;1.25;;;31.60;80.40;;;;;;960400;149;27399;-73
2022/06/27 09:25:09;;;;;;;2.20;1.32;;;31.50;79.70;;;;;;959973;149;27293;-72
2022/06/27 09:27:36;;;;;;;1.67;1.57;;;31.40;77.40;;;;;;960068;149;27305;-73
2022/06/27 09:30:03;;;;;;;1.32;1.27;;;31.20;76.40;;;;;;959799;147;27428;-73
2022/06/27 09:32:29;;;;;;;1.60;1.50;;;31.00;75.80;;;;;;955331;149;28600;-72
2022/06/27 09:34:56;;;;;;;1.98;1.57;;;30.70;75.10;;;;;;960527;146;27370;-72
2022/06/27 09:37:22;;;;;;;1.57;1.47;;;30.50;74.90;;;;;;960424;149;27296;-73
2022/06/27 09:39:49;;;;;;;2.25;1.52;;;30.30;74.70;;;;;;959836;149;27364;-72
2022/06/27 09:42:15;;;;;;;1.65;1.50;;;30.00;74.00;;;;;;960134;149;27425;-73
2022/06/27 09:44:42;;;;;;;1.72;1.62;;;29.70;73.60;;;;;;960077;149;27336;-72
2022/06/27 09:47:16;;;;;;;1.42;1.32;;;29.40;73.60;;;;;;960294;149;27316;-72
2022/06/27 09:49:41;;;;;;;1.45;1.35;;;29.10;74.40;;;;;;960159;149;27317;-72
2022/06/27 09:52:08;;;;;;;2.37;1.47;;;28.90;75.20;;;;;;959523;149;27370;-72
2022/06/27 09:54:34;;;;;;;3.35;1.27;;;28.60;77.30;;;;;;959310;149;27296;-73
2022/06/27 09:57:00;;;;;;;1.60;1.50;;;28.60;78.70;;;;;;960208;148;27312;-72
2022/06/27 09:59:27;;;;;;;3.12;1.67;;;28.50;80.40;;;;;;960062;146;27306;-72
2022/06/27 10:01:57;;;;;;;1.55;1.50;;;28.60;81.40;;;;;;958364;149;27404;-73
2022/06/27 10:04:24;;;;;;;1.50;1.40;;;28.70;81.60;;;;;;953512;150;28370;-72
2022/06/27 10:06:47;;;;;;;1.95;1.50;;;28.90;82.80;;;;;;953320;150;27325;-72
2022/06/27 10:09:16;;;;;;;1.57;1.30;;;29.10;84.90;;;;;;953525;150;27322;-73
2022/06/27 10:11:40;;;;;;;1.60;1.50;;;29.50;85.70;;;;;;953472;147;27397;-73
2022/06/27 10:14:13;;;;;;;1.70;1.60;;;29.90;84.50;;;;;;953883;150;27333;-73
2022/06/27 10:16:57;;;;;;;2.72;1.70;;;30.30;82.10;;;;;;950601;147;27337;-73
2022/06/27 10:19:24;;;;;;;1.65;1.52;;;30.60;79.40;;;;;;952297;147;27330;-72
2022/06/27 10:21:51;;;;;;;2.87;1.32;;;30.90;76.10;;;;;;951514;147;27310;-72
2022/06/27 10:24:30;;;;;;;1.52;1.42;;;31.00;75.60;;;;;;952722;150;27337;-74
2022/06/27 10:26:49;;;;;;;1.42;1.32;;;31.20;75.70;;;;;;950774;147;27436;-72
2022/06/27 10:29:33;;;;;;;2.98;1.60;;;31.40;75.50;;;;;;950083;148;27449;-73
2022/06/27 10:31:58;;;;;;;1.70;1.10;;;31.60;75.30;;;;;;953810;150;27328;-73
2022/06/27 10:34:46;;;;;;;2.15;1.32;;;31.90;73.90;;;;;;953612;147;27339;-73
2022/06/27 10:37:24;;;;;;;1.72;1.20;;;32.10;71.60;;;;;;953531;150;27357;-74
2022/06/27 10:39:53;;;;;;;1.30;1.20;;;32.40;70.80;;;;;;953674;147;27337;-74
2022/06/27 10:42:44;;;;;;;2.15;1.40;;;32.50;69.60;;;;;;953292;150;27282;-73
2022/06/27 10:45:20;;;;;;;1.35;1.25;;;32.60;68.70;;;;;;953503;150;27322;-74
2022/06/27 10:47:58;;;;;;;0.90;0.90;;;32.70;67.80;;;;;;953592;149;27343;-73
2022/06/27 10:50:28;;;;;;;1.82;1.40;;;32.70;66.40;;;;;;952714;149;27352;-73
2022/06/27 10:53:15;;;;;;;2.27;1.37;;;32.70;65.60;;;;;;953415;150;27421;-73
2022/06/27 10:55:42;;;;;;;1.07;1.00;;;32.60;64.10;;;;;;947842;148;27269;-74
2022/06/27 10:58:20;;;;;;;1.47;1.40;;;32.50;63.50;;;;;;953946;147;27431;-74
2022/06/27 11:00:47;;;;;;;1.87;1.17;;;32.20;63.00;;;;;;951259;150;27377;-72
2022/06/27 11:03:20;;;;;;;1.22;1.12;;;32.00;63.20;;;;;;953717;149;27357;-72
2022/06/27 11:06:00;;;;;;;1.30;1.20;;;31.70;64.00;;;;;;952876;150;27282;-73
2022/06/27 11:08:27;;;;;;;1.17;1.07;;;31.60;64.80;;;;;;940039;150;27348;-73
2022/06/27 11:10:54;;;;;;;2.17;1.10;;;31.60;65.60;;;;;;954055;150;27337;-73
2022/06/27 11:13:39;;;;;;;1.00;0.98;;;31.60;65.60;;;;;;953158;150;27321;-73
2022/06/27 11:16:05;;;;;;;1.50;1.40;;;31.70;65.70;;;;;;953540;149;27364;-73
2022/06/27 11:18:58;;;;;;;1.30;1.30;;;31.90;66.00;;;;;;953583;150;27335;-73
2022/06/27 11:21:22;;;;;;;1.10;1.00;;;32.10;65.50;;;;;;952926;150;27324;-73
2022/06/27 11:23:55;;;;;;;0.90;0.90;;;32.30;65.20;;;;;;953255;150;27309;-73
2022/06/27 11:26:21;;;;;;;0.78;0.78;;;32.40;64.50;;;;;;953535;150;27421;-73
2022/06/27 11:34:18;;;;;;;0.98;0.98;;;32.70;62.10;;;;;;952877;149;27289;-74
2022/06/27 11:36:44;;;;;;;1.10;1.10;;;32.70;60.90;;;;;;953662;149;27517;-72
2022/06/27 11:39:11;;;;;;;1.25;1.15;;;32.60;60.20;;;;;;952802;150;27776;-72
2022/06/27 11:41:37;;;;;;;1.35;0.95;;;32.50;59.60;;;;;;953518;147;27317;-74
2022/06/27 11:44:07;;;;;;;1.10;1.02;;;32.30;59.20;;;;;;953267;150;27309;-73
2022/06/27 11:46:33;;;;;;;2.33;1.30;;;32.00;59.00;;;;;;953512;150;27433;-73
2022/06/27 11:48:59;;;;;;;1.40;1.30;;;31.70;59.00;;;;;;953951;149;27333;-73
2022/06/27 11:51:26;;;;;;;1.20;1.10;;;31.40;59.20;;;;;;953058;150;27353;-74
2022/06/27 11:53:55;;;;;;;1.85;1.70;;;31.00;59.50;;;;;;953832;147;27261;-73
2022/06/27 11:56:25;;;;;;;1.60;1.50;;;30.70;59.50;;;;;;953289;150;27297;-73
2022/06/27 11:58:52;;;;;;;1.50;1.40;;;30.40;59.40;;;;;;953870;149;27349;-72
2022/06/27 12:01:18;;;;;;;1.75;1.65;;;30.10;59.60;;;;;;953653;150;27344;-73
2022/06/27 12:04:10;;;;;;;1.50;1.30;;;29.80;59.80;;;;;;954000;149;27325;-74
2022/06/27 12:06:45;;;;;;;2.17;1.60;;;29.50;59.90;;;;;;953291;150;27604;-73
2022/06/27 12:09:12;;;;;;;2.17;1.60;;;29.20;60.30;;;;;;953556;150;27294;-73
2022/06/27 12:11:38;;;;;;;1.45;1.40;;;28.90;60.80;;;;;;953670;150;27341;-72
2022/06/27 12:14:05;;;;;;;1.80;1.70;;;28.70;61.20;;;;;;952977;150;27402;-72
2022/06/27 12:16:44;;;;;;;1.42;1.40;;;28.40;61.50;;;;;;953744;150;27294;-72
2022/06/27 12:19:10;;;;;;;1.50;1.40;;;28.30;62.10;;;;;;953772;150;27368;-72
2022/06/27 12:21:37;;;;;;;1.70;1.60;;;28.10;62.70;;;;;;953283;150;27282;-72
2022/06/27 12:24:04;;;;;;;1.95;1.50;;;28.00;62.90;;;;;;953948;149;27351;-72
2022/06/27 12:26:30;;;;;;;1.10;1.10;;;28.00;63.40;;;;;;953783;149;27318;-72
2022/06/27 12:28:56;;;;;;;1.25;1.15;;;27.90;63.90;;;;;;954050;150;27902;-73
2022/06/27 12:31:23;;;;;;;1.60;1.40;;;27.90;63.90;;;;;;953772;148;28482;-73
2022/06/27 12:33:50;;;;;;;1.15;1.15;;;28.00;64.10;;;;;;953644;150;27286;-72
2022/06/27 12:36:16;;;;;;;1.60;1.07;;;28.00;64.00;;;;;;953315;150;27304;-72
2022/06/27 12:38:43;;;;;;;2.65;1.52;;;28.10;63.90;;;;;;954114;150;27298;-72
2022/06/27 12:41:13;;;;;;;1.65;1.30;;;28.10;63.80;;;;;;953855;150;27356;-72
2022/06/27 12:43:39;;;;;;;1.27;1.12;;;28.20;63.90;;;;;;953516;150;28281;-73
2022/06/27 12:46:05;;;;;;;1.37;1.30;;;28.20;63.80;;;;;;954200;150;27282;-72
2022/06/27 12:48:32;;;;;;;1.37;1.27;;;28.30;63.90;;;;;;953852;150;27305;-72
2022/06/27 12:50:59;;;;;;;1.95;1.40;;;28.50;64.40;;;;;;953410;149;27807;-73
2022/06/27 12:53:26;;;;;;;1.40;1.30;;;28.70;64.70;;;;;;953517;150;27302;-72
2022/06/27 12:55:52;;;;;;;0.98;0.98;;;28.90;64.50;;;;;;953405;150;27244;-73
2022/06/27 12:58:18;;;;;;;1.22;1.00;;;29.20;64.20;;;;;;952742;149;27242;-73
2022/06/27 13:00:45;;;;;;;1.10;1.10;;;29.40;63.20;;;;;;954079;150;27440;-72